Time;durP1;ratioP1;P1;durP2;ratioP2;P2;SDS_P1;SDS_P2;PMS_P1;PMS_P2;Temp;Humidity;BMP_temperature;BMP_pressure;BME280_temperature;BME280_humidity;BME280_pressure;Samples;Min_cycle;Max_cycle;Signal;HPM_P1;HPM_P2
2021/12/01 00:00:13;;;;;;;0.90;0.90;;;-10.00;99.90;;;;;;5033672;28;20640;-69
2021/12/01 00:02:39;;;;;;;1.00;1.00;;;-10.00;99.90;;;;;;5015571;28;20209;-68
2021/12/01 00:05:09;;;;;;;1.00;1.00;;;-10.00;99.90;;;;;;5015417;28;20218;-69
2021/12/01 00:07:36;;;;;;;1.10;1.10;;;-10.00;99.90;;;;;;5013943;28;20198;-68
2021/12/01 00:10:07;;;;;;;1.00;1.00;;;-10.00;99.90;;;;;;5016529;28;20708;-68
2021/12/01 00:12:33;;;;;;;1.57;1.47;;;-9.90;99.90;;;;;;5033130;28;20512;-69
2021/12/01 00:14:59;;;;;;;1.00;1.00;;;-9.80;99.90;;;;;;5033185;28;20642;-69
2021/12/01 00:17:25;;;;;;;0.90;0.90;;;-9.80;99.90;;;;;;5032963;28;20260;-69
2021/12/01 00:19:52;;;;;;;1.00;1.00;;;-9.80;99.90;;;;;;5033195;28;20209;-68
2021/12/01 00:22:18;;;;;;;0.90;0.90;;;-9.80;99.90;;;;;;5015042;28;20256;-68
2021/12/01 00:24:43;;;;;;;1.43;1.33;;;-9.80;99.90;;;;;;5034247;28;20203;-68
2021/12/01 00:27:09;;;;;;;1.57;1.47;;;-9.90;99.90;;;;;;5032894;28;20626;-68
2021/12/01 00:29:35;;;;;;;1.00;1.00;;;-9.90;99.90;;;;;;5032690;28;20317;-68
2021/12/01 00:32:02;;;;;;;1.10;1.10;;;-9.90;99.90;;;;;;5032823;28;20213;-68
2021/12/01 00:34:28;;;;;;;1.00;1.00;;;-9.90;99.90;;;;;;5032590;28;20205;-68
2021/12/01 00:36:53;;;;;;;0.97;0.97;;;-10.00;99.90;;;;;;5032905;28;20198;-68
2021/12/01 00:39:19;;;;;;;1.00;1.00;;;-10.00;99.90;;;;;;5015753;28;20260;-69
2021/12/01 00:41:47;;;;;;;0.90;0.90;;;-10.00;99.90;;;;;;5034115;28;20205;-68
2021/12/01 00:44:13;;;;;;;0.90;0.90;;;-10.10;99.90;;;;;;5014761;28;20205;-68
2021/12/01 00:46:56;;;;;;;0.97;0.97;;;-10.10;99.90;;;;;;5032585;28;20552;-68
2021/12/01 00:49:22;;;;;;;1.00;1.00;;;-10.10;99.90;;;;;;5032353;28;20229;-68
2021/12/01 00:51:48;;;;;;;1.00;1.00;;;-10.10;99.90;;;;;;5033834;28;20198;-68
2021/12/01 00:54:16;;;;;;;0.90;0.90;;;-10.00;99.90;;;;;;5033625;28;20208;-68
2021/12/01 00:56:43;;;;;;;0.97;0.97;;;-10.00;99.90;;;;;;5031923;28;20194;-68
2021/12/01 00:59:09;;;;;;;1.00;1.00;;;-9.90;99.90;;;;;;5033587;28;20610;-68
2021/12/01 01:01:34;;;;;;;1.00;1.00;;;-10.00;99.90;;;;;;5014238;28;20213;-68
2021/12/01 01:04:00;;;;;;;0.90;0.90;;;-10.00;99.90;;;;;;5032341;28;20622;-69
2021/12/01 01:06:27;;;;;;;0.90;0.90;;;-10.00;99.90;;;;;;5033639;28;20774;-68
2021/12/01 01:08:53;;;;;;;1.00;1.00;;;-10.10;99.90;;;;;;5032057;28;20213;-68
2021/12/01 01:16:49;;;;;;;0.90;0.90;;;-10.20;99.90;;;;;;5032169;28;20200;-67
2021/12/01 01:19:17;;;;;;;0.90;0.90;;;-10.20;99.90;;;;;;5031758;28;20308;-67
2021/12/01 01:21:48;;;;;;;1.00;1.00;;;-10.20;99.90;;;;;;5031800;28;20251;-67
2021/12/01 01:24:14;;;;;;;1.10;1.10;;;-10.20;99.90;;;;;;5032993;28;20198;-67
2021/12/01 01:26:40;;;;;;;0.90;0.90;;;-10.20;99.90;;;;;;5033085;28;20198;-67
2021/12/01 01:29:06;;;;;;;1.50;1.40;;;-10.10;99.90;;;;;;5031648;28;20216;-67
2021/12/01 01:31:32;;;;;;;0.90;0.90;;;-10.10;99.90;;;;;;5015084;28;20285;-67
2021/12/01 01:33:58;;;;;;;1.00;1.00;;;-10.10;99.90;;;;;;5015317;28;20277;-67
2021/12/01 01:36:25;;;;;;;1.00;1.00;;;-10.20;99.90;;;;;;5031475;28;20209;-67
2021/12/01 01:38:51;;;;;;;1.00;1.00;;;-10.20;99.90;;;;;;5013754;28;20198;-67
2021/12/01 01:41:18;;;;;;;0.87;0.87;;;-10.30;99.90;;;;;;5032711;28;20700;-68
2021/12/01 01:43:46;;;;;;;0.97;0.97;;;-10.30;99.90;;;;;;5031564;28;20194;-67
2021/12/01 01:46:13;;;;;;;1.10;1.10;;;-10.40;99.90;;;;;;5031552;28;20202;-67
2021/12/01 01:48:54;;;;;;;1.00;1.00;;;-10.40;99.90;;;;;;5032608;28;20214;-67
2021/12/01 01:51:24;;;;;;;0.90;0.90;;;-10.40;99.90;;;;;;5031168;28;20657;-67
2021/12/01 01:53:54;;;;;;;1.37;1.33;;;-10.40;99.90;;;;;;5030858;28;20237;-67
2021/12/01 01:56:20;;;;;;;1.00;1.00;;;-10.30;99.90;;;;;;5013330;28;20201;-67
2021/12/01 01:58:46;;;;;;;0.97;0.97;;;-10.30;99.90;;;;;;5031618;28;20209;-67
2021/12/01 02:03:56;;;;;;;1.00;1.00;;;-10.30;99.90;;;;;;5031671;28;20292;-67
2021/12/01 02:06:25;;;;;;;1.00;1.00;;;-10.30;99.90;;;;;;5031549;28;20603;-67
2021/12/01 02:08:53;;;;;;;0.97;0.97;;;-10.40;99.90;;;;;;5030342;28;20206;-64
2021/12/01 02:11:20;;;;;;;1.00;1.00;;;-10.50;99.90;;;;;;5009821;28;20237;-67
2021/12/01 02:13:46;;;;;;;0.93;0.93;;;-10.50;99.90;;;;;;5011442;28;20203;-66
2021/12/01 02:16:13;;;;;;;0.90;0.90;;;-10.60;99.90;;;;;;5012719;28;20201;-66
2021/12/01 02:18:40;;;;;;;0.90;0.90;;;-10.60;99.90;;;;;;5011093;28;20210;-66
2021/12/01 02:21:15;;;;;;;0.90;0.90;;;-10.60;99.90;;;;;;5011164;28;20283;-66
2021/12/01 02:23:45;;;;;;;0.90;0.90;;;-10.60;99.90;;;;;;5011150;28;20209;-66
2021/12/01 02:26:13;;;;;;;0.90;0.90;;;-10.60;99.90;;;;;;5011075;28;20600;-67
2021/12/01 02:28:40;;;;;;;1.03;1.03;;;-10.60;99.90;;;;;;5012305;28;20222;-66
2021/12/01 02:31:06;;;;;;;0.90;0.90;;;-10.70;99.90;;;;;;5011292;28;20195;-66
2021/12/01 02:33:32;;;;;;;1.00;1.00;;;-10.70;99.90;;;;;;5012345;28;20203;-66
2021/12/01 02:35:58;;;;;;;2.40;2.20;;;-10.70;99.90;;;;;;5009823;28;20636;-66
2021/12/01 02:38:24;;;;;;;1.00;1.00;;;-10.70;99.90;;;;;;5010922;28;20341;-66
2021/12/01 02:40:50;;;;;;;0.90;0.90;;;-10.70;99.90;;;;;;5011024;28;20548;-66
2021/12/01 02:43:17;;;;;;;1.00;1.00;;;-10.80;99.90;;;;;;5011031;28;20214;-66
2021/12/01 02:45:43;;;;;;;0.93;0.93;;;-10.80;99.90;;;;;;5011025;28;20203;-66
2021/12/01 02:48:13;;;;;;;0.90;0.90;;;-10.80;99.90;;;;;;5010967;28;20589;-66
2021/12/01 02:50:42;;;;;;;1.00;1.00;;;-10.70;99.90;;;;;;5010959;28;20203;-66
2021/12/01 02:53:08;;;;;;;0.90;0.90;;;-10.70;99.90;;;;;;5009528;28;20207;-66
2021/12/01 02:55:40;;;;;;;0.93;0.93;;;-10.60;99.90;;;;;;5009540;28;20286;-66
2021/12/01 02:58:07;;;;;;;0.90;0.90;;;-10.60;99.90;;;;;;5011250;28;20202;-66
2021/12/01 03:00:33;;;;;;;1.00;1.00;;;-10.70;99.90;;;;;;5008537;28;20702;-69
2021/12/01 03:02:59;;;;;;;1.00;1.00;;;-10.70;99.90;;;;;;5010897;28;20256;-67
2021/12/01 03:05:25;;;;;;;1.00;1.00;;;-10.70;99.90;;;;;;5009625;28;20568;-67
2021/12/01 03:07:52;;;;;;;0.90;0.90;;;-10.70;99.90;;;;;;5009406;28;20268;-66
2021/12/01 03:10:18;;;;;;;1.57;1.47;;;-10.70;99.90;;;;;;5009332;28;20227;-67
2021/12/01 03:12:44;;;;;;;1.00;1.00;;;-10.70;99.90;;;;;;5010777;28;20270;-66
2021/12/01 03:15:15;;;;;;;0.90;0.90;;;-10.70;99.90;;;;;;5010844;28;20206;-67
2021/12/01 03:17:41;;;;;;;1.00;1.00;;;-10.70;99.90;;;;;;5012109;28;20207;-66
2021/12/01 03:20:11;;;;;;;1.00;1.00;;;-10.70;99.90;;;;;;5011245;28;20281;-67
2021/12/01 03:22:37;;;;;;;0.90;0.90;;;-10.70;99.90;;;;;;5014128;28;20199;-66
2021/12/01 03:25:09;;;;;;;1.00;1.00;;;-10.70;99.90;;;;;;5014589;28;20205;-67
2021/12/01 03:27:36;;;;;;;0.90;0.90;;;-10.70;99.90;;;;;;5014118;28;20682;-66
2021/12/01 03:30:09;;;;;;;0.93;0.93;;;-10.70;99.90;;;;;;5014278;28;20693;-66
2021/12/01 03:32:36;;;;;;;1.00;1.00;;;-10.70;99.90;;;;;;5014060;28;20217;-66
2021/12/01 03:35:07;;;;;;;0.90;0.90;;;-10.60;99.90;;;;;;5014144;28;20603;-66
2021/12/01 03:37:33;;;;;;;1.00;1.00;;;-10.70;99.90;;;;;;5012852;28;20284;-66
2021/12/01 03:39:59;;;;;;;0.90;0.90;;;-10.70;99.90;;;;;;5013957;28;20194;-66
2021/12/01 03:42:26;;;;;;;0.90;0.90;;;-10.80;99.90;;;;;;5012513;28;20559;-66
2021/12/01 03:44:53;;;;;;;0.90;0.90;;;-10.80;99.90;;;;;;5014080;28;20198;-66
2021/12/01 03:47:19;;;;;;;1.00;1.00;;;-10.90;99.90;;;;;;5015187;28;20210;-68
2021/12/01 03:49:44;;;;;;;0.90;0.90;;;-10.90;99.90;;;;;;5013554;28;20206;-66
2021/12/01 03:52:14;;;;;;;0.90;0.90;;;-11.00;99.90;;;;;;5013799;28;20673;-67
2021/12/01 03:54:40;;;;;;;0.90;0.90;;;-11.00;99.90;;;;;;5015024;28;20202;-66
2021/12/01 03:57:06;;;;;;;0.90;0.90;;;-11.00;99.90;;;;;;5012516;28;20270;-66
2021/12/01 03:59:32;;;;;;;1.00;1.00;;;-11.00;99.90;;;;;;5013780;28;20203;-67
2021/12/01 04:01:57;;;;;;;0.90;0.90;;;-11.00;99.90;;;;;;5013223;28;20230;-66
2021/12/01 04:04:23;;;;;;;0.90;0.90;;;-11.00;99.90;;;;;;5014869;28;20211;-66
2021/12/01 04:06:49;;;;;;;1.00;1.00;;;-11.10;99.90;;;;;;5013333;28;20760;-66
2021/12/01 04:09:14;;;;;;;1.40;1.30;;;-11.10;99.90;;;;;;5013369;28;20301;-67
2021/12/01 04:11:40;;;;;;;0.97;0.97;;;-11.10;99.90;;;;;;5031005;28;20597;-66
2021/12/01 04:14:06;;;;;;;1.00;1.00;;;-11.10;99.90;;;;;;5016567;28;20238;-66
2021/12/01 04:16:32;;;;;;;1.00;1.00;;;-11.20;99.90;;;;;;5033033;28;20202;-67
2021/12/01 04:18:57;;;;;;;1.00;1.00;;;-11.20;99.90;;;;;;5034334;28;20205;-66
2021/12/01 04:21:25;;;;;;;1.00;1.00;;;-11.20;99.90;;;;;;5032911;28;20206;-67
2021/12/01 04:23:51;;;;;;;1.10;1.10;;;-11.20;99.90;;;;;;5014937;28;20206;-66
2021/12/01 04:26:20;;;;;;;1.00;1.00;;;-11.20;99.90;;;;;;5033187;28;20281;-66
2021/12/01 04:28:46;;;;;;;0.90;0.90;;;-11.30;99.90;;;;;;5034181;28;20206;-66
2021/12/01 04:31:12;;;;;;;1.77;1.57;;;-11.30;99.90;;;;;;5014917;28;20301;-67
2021/12/01 04:33:38;;;;;;;1.00;1.00;;;-11.30;99.90;;;;;;5031952;28;20251;-66
2021/12/01 04:36:04;;;;;;;1.00;1.00;;;-11.30;99.90;;;;;;5016289;28;20205;-67
2021/12/01 04:38:30;;;;;;;0.90;0.90;;;-11.30;99.90;;;;;;5032659;28;20216;-67
2021/12/01 04:40:55;;;;;;;0.90;0.90;;;-11.30;99.90;;;;;;5027315;28;20669;-67
2021/12/01 04:43:21;;;;;;;1.00;1.00;;;-11.40;99.90;;;;;;5014587;28;20206;-67
2021/12/01 04:45:52;;;;;;;0.90;0.90;;;-11.40;99.90;;;;;;5032485;28;20202;-66
2021/12/01 04:48:18;;;;;;;1.00;1.00;;;-11.40;99.90;;;;;;5032239;28;20689;-67
2021/12/01 04:50:43;;;;;;;1.00;1.00;;;-11.40;99.90;;;;;;5032462;28;20206;-66
2021/12/01 04:53:09;;;;;;;0.90;0.90;;;-11.50;99.90;;;;;;5033758;28;20284;-66
2021/12/01 04:55:35;;;;;;;0.90;0.90;;;-11.40;99.90;;;;;;5033671;28;20638;-67
2021/12/01 04:58:00;;;;;;;0.93;0.93;;;-11.40;99.90;;;;;;5032297;28;20206;-66
2021/12/01 05:00:27;;;;;;;0.90;0.90;;;-11.40;99.90;;;;;;5031921;28;20267;-67
2021/12/01 05:02:53;;;;;;;1.00;1.00;;;-11.30;99.90;;;;;;5033434;28;20661;-67
2021/12/01 05:05:19;;;;;;;0.90;0.90;;;-11.30;99.90;;;;;;5032205;28;20202;-66
2021/12/01 05:07:45;;;;;;;1.00;1.00;;;-11.30;99.90;;;;;;5032053;28;20202;-66
2021/12/01 05:10:12;;;;;;;0.90;0.90;;;-11.20;99.90;;;;;;5032322;28;20728;-66
2021/12/01 05:12:38;;;;;;;1.00;1.00;;;-11.20;99.90;;;;;;5033485;28;20533;-66
2021/12/01 05:15:05;;;;;;;0.90;0.90;;;-11.10;99.90;;;;;;5031913;28;20275;-67
2021/12/01 05:17:31;;;;;;;0.90;0.90;;;-11.10;99.90;;;;;;5031768;28;20202;-67
2021/12/01 05:19:57;;;;;;;0.90;0.90;;;-11.10;99.90;;;;;;5033423;28;20289;-67
2021/12/01 05:22:23;;;;;;;0.93;0.93;;;-11.00;99.90;;;;;;5031071;28;20555;-67
2021/12/01 05:24:48;;;;;;;0.90;0.90;;;-11.00;99.90;;;;;;5013983;28;20272;-66
2021/12/01 05:27:14;;;;;;;1.00;1.00;;;-10.90;99.90;;;;;;5031842;28;20237;-66
2021/12/01 05:29:40;;;;;;;1.53;1.43;;;-10.90;99.90;;;;;;5013949;28;20685;-66
2021/12/01 05:32:06;;;;;;;0.90;0.90;;;-10.90;99.90;;;;;;5032946;28;20573;-66
2021/12/01 05:34:32;;;;;;;1.00;1.00;;;-11.00;99.90;;;;;;5013743;28;20202;-66
2021/12/01 05:37:00;;;;;;;0.90;0.90;;;-11.00;99.90;;;;;;5014586;28;20206;-66
2021/12/01 05:39:29;;;;;;;1.00;1.00;;;-11.10;99.90;;;;;;5014771;28;20209;-66
2021/12/01 05:41:56;;;;;;;1.07;1.07;;;-11.10;99.90;;;;;;5031440;28;20669;-67
2021/12/01 05:44:22;;;;;;;1.00;1.00;;;-11.10;99.90;;;;;;5013678;28;20206;-66
2021/12/01 05:46:48;;;;;;;0.90;0.90;;;-11.20;99.90;;;;;;5031348;28;20206;-66
2021/12/01 05:49:13;;;;;;;0.90;0.90;;;-11.20;99.90;;;;;;5032830;28;20580;-66
2021/12/01 05:51:39;;;;;;;0.90;0.90;;;-11.20;99.90;;;;;;5031104;28;20202;-66
2021/12/01 05:54:05;;;;;;;1.00;1.00;;;-11.20;99.90;;;;;;5032632;28;20233;-67
2021/12/01 05:56:31;;;;;;;0.90;0.90;;;-11.30;99.90;;;;;;5031151;28;20202;-66
2021/12/01 05:58:57;;;;;;;1.00;1.00;;;-11.30;99.90;;;;;;5014702;28;20274;-66
2021/12/01 06:01:22;;;;;;;1.00;1.00;;;-11.40;99.90;;;;;;5013252;28;20301;-67
2021/12/01 06:03:49;;;;;;;1.00;1.00;;;-11.50;99.90;;;;;;5031287;28;20217;-66
2021/12/01 06:06:15;;;;;;;1.30;1.20;;;-11.50;99.90;;;;;;5030491;28;20232;-66
2021/12/01 06:08:41;;;;;;;1.00;1.00;;;-11.50;99.90;;;;;;5013386;28;20218;-66
2021/12/01 06:11:07;;;;;;;1.07;1.03;;;-11.40;99.90;;;;;;5031076;28;20222;-67
2021/12/01 06:13:33;;;;;;;1.00;1.00;;;-11.40;99.90;;;;;;5032052;28;20197;-67
2021/12/01 06:15:59;;;;;;;1.00;1.00;;;-11.40;99.90;;;;;;5031861;28;20217;-67
2021/12/01 06:18:25;;;;;;;4.87;4.30;;;-11.50;99.90;;;;;;5013123;28;20205;-66
2021/12/01 06:20:53;;;;;;;1.47;1.37;;;-11.50;99.90;;;;;;5031056;28;20201;-66
2021/12/01 06:23:19;;;;;;;0.90;0.90;;;-11.50;99.90;;;;;;5030893;28;20205;-66
2021/12/01 06:25:45;;;;;;;1.20;1.20;;;-11.50;99.90;;;;;;5031058;28;20644;-66
2021/12/01 06:28:10;;;;;;;1.77;1.67;;;-11.60;99.90;;;;;;5032347;28;20248;-66
2021/12/01 06:30:38;;;;;;;0.90;0.90;;;-11.60;99.90;;;;;;5030875;28;20202;-65
2021/12/01 06:33:04;;;;;;;1.53;1.43;;;-11.70;99.90;;;;;;5030964;28;20194;-66
2021/12/01 06:35:29;;;;;;;0.90;0.90;;;-11.70;99.90;;;;;;5032086;28;20201;-66
2021/12/01 06:37:56;;;;;;;1.00;1.00;;;-11.80;99.90;;;;;;5031085;28;20248;-66
2021/12/01 06:40:24;;;;;;;0.90;0.90;;;-11.80;99.90;;;;;;5029537;28;20202;-67
2021/12/01 06:42:50;;;;;;;1.00;1.00;;;-11.80;99.90;;;;;;5030982;28;20610;-66
2021/12/01 06:45:18;;;;;;;0.90;0.90;;;-11.80;99.90;;;;;;5030720;28;20209;-67
2021/12/01 06:47:45;;;;;;;0.90;0.90;;;-11.70;99.90;;;;;;5030858;28;20273;-66
2021/12/01 06:50:12;;;;;;;0.90;0.90;;;-11.70;99.90;;;;;;5030849;28;20226;-66
2021/12/01 06:52:38;;;;;;;1.00;1.00;;;-11.60;99.90;;;;;;5030758;28;20565;-66
2021/12/01 06:55:06;;;;;;;0.90;0.90;;;-11.60;99.90;;;;;;5014855;28;20209;-66
2021/12/01 06:57:32;;;;;;;0.90;0.90;;;-11.60;99.90;;;;;;5034664;28;20198;-67
2021/12/01 06:59:58;;;;;;;0.90;0.90;;;-11.60;99.90;;;;;;5034757;28;20206;-66
2021/12/01 07:02:24;;;;;;;1.00;1.00;;;-11.70;99.90;;;;;;5035939;28;20190;-67
2021/12/01 07:04:50;;;;;;;0.90;0.90;;;-11.80;99.90;;;;;;5035171;28;20562;-67
2021/12/01 07:07:16;;;;;;;1.10;1.10;;;-11.80;99.90;;;;;;5015787;28;20218;-67
2021/12/01 07:09:44;;;;;;;1.10;1.10;;;-11.80;99.90;;;;;;5034576;28;20273;-67
2021/12/01 07:12:10;;;;;;;1.00;1.00;;;-11.80;99.90;;;;;;5035683;28;20315;-67
2021/12/01 07:14:36;;;;;;;1.00;1.00;;;-11.70;99.90;;;;;;5034425;28;20218;-66
2021/12/01 07:17:02;;;;;;;1.00;1.00;;;-11.70;99.90;;;;;;5034271;28;20229;-67
2021/12/01 07:19:27;;;;;;;0.90;0.90;;;-11.70;99.90;;;;;;5016297;28;20206;-67
2021/12/01 07:21:53;;;;;;;1.10;1.10;;;-11.60;99.90;;;;;;5034256;28;20210;-67
2021/12/01 07:24:20;;;;;;;1.10;1.10;;;-11.60;99.90;;;;;;5035462;28;20213;-67
2021/12/01 07:26:46;;;;;;;1.07;1.07;;;-11.60;99.90;;;;;;5016264;28;20214;-67
2021/12/01 07:29:12;;;;;;;0.90;0.90;;;-11.60;99.90;;;;;;5016038;28;20293;-67
2021/12/01 07:31:37;;;;;;;1.00;1.00;;;-11.60;99.90;;;;;;5033608;28;20340;-67
2021/12/01 07:34:04;;;;;;;0.90;0.90;;;-11.60;99.90;;;;;;5034009;28;20209;-67
2021/12/01 07:36:30;;;;;;;7.40;2.60;;;-11.60;99.90;;;;;;5033859;28;20724;-67
2021/12/01 07:38:57;;;;;;;1.33;1.23;;;-11.60;99.90;;;;;;5033746;28;20297;-67
2021/12/01 07:41:23;;;;;;;1.00;1.00;;;-11.60;99.90;;;;;;5015520;28;20240;-67
2021/12/01 07:43:49;;;;;;;0.90;0.90;;;-11.50;99.90;;;;;;5035207;28;20580;-67
2021/12/01 07:46:15;;;;;;;1.00;1.00;;;-11.50;99.90;;;;;;5033677;28;20206;-66
2021/12/01 07:48:41;;;;;;;1.00;1.00;;;-11.50;99.90;;;;;;5015809;28;20305;-66
2021/12/01 07:51:07;;;;;;;1.00;1.00;;;-11.50;99.90;;;;;;5033623;28;20685;-67
2021/12/01 07:53:32;;;;;;;1.00;1.00;;;-11.40;99.90;;;;;;5015637;28;20294;-66
2021/12/01 07:55:58;;;;;;;1.00;1.00;;;-11.40;99.90;;;;;;5034908;28;20202;-67
2021/12/01 07:58:24;;;;;;;3.53;3.23;;;-11.30;99.90;;;;;;5034884;28;20209;-66
2021/12/01 08:00:50;;;;;;;1.00;1.00;;;-11.30;99.90;;;;;;5015726;28;20203;-67
2021/12/01 08:03:15;;;;;;;1.00;1.00;;;-11.30;99.90;;;;;;5031878;28;20288;-67
2021/12/01 08:05:41;;;;;;;1.77;1.67;;;-11.20;99.90;;;;;;5033727;28;20565;-71
2021/12/01 08:08:08;;;;;;;0.90;0.90;;;-11.20;99.90;;;;;;5032043;28;20214;-67
2021/12/01 08:10:33;;;;;;;1.00;1.00;;;-11.10;99.90;;;;;;5034249;28;20230;-67
2021/12/01 08:13:01;;;;;;;0.90;0.90;;;-11.10;99.90;;;;;;5034588;28;20285;-68
2021/12/01 08:15:27;;;;;;;1.00;1.00;;;-11.10;99.90;;;;;;5034522;28;20650;-66
2021/12/01 08:17:53;;;;;;;0.90;0.90;;;-11.00;99.90;;;;;;5034657;28;20577;-67
2021/12/01 08:20:20;;;;;;;1.17;1.17;;;-11.00;99.90;;;;;;5033175;28;20701;-68
2021/12/01 08:22:46;;;;;;;1.00;1.00;;;-11.00;99.90;;;;;;5033168;28;20727;-67
2021/12/01 08:25:13;;;;;;;1.00;1.00;;;-11.00;99.90;;;;;;5033072;28;20198;-67
2021/12/01 08:27:39;;;;;;;1.77;1.43;;;-10.90;99.90;;;;;;5032802;28;20228;-67
2021/12/01 08:30:06;;;;;;;0.90;0.90;;;-10.90;99.90;;;;;;5032990;28;20206;-67
2021/12/01 08:32:32;;;;;;;1.03;1.03;;;-10.80;99.90;;;;;;5034035;28;20684;-67
2021/12/01 08:34:58;;;;;;;1.10;1.10;;;-10.80;99.90;;;;;;5032813;28;20242;-67
2021/12/01 08:37:23;;;;;;;1.00;1.00;;;-10.80;99.90;;;;;;5014884;28;20214;-67
2021/12/01 08:39:50;;;;;;;0.90;0.90;;;-10.80;99.90;;;;;;5015566;28;20206;-67
2021/12/01 08:42:17;;;;;;;1.00;1.00;;;-10.80;99.90;;;;;;5032818;28;20539;-67
2021/12/01 08:44:45;;;;;;;1.20;1.20;;;-10.80;99.90;;;;;;5032667;28;20214;-67
2021/12/01 08:47:13;;;;;;;1.00;1.00;;;-10.80;99.90;;;;;;5014866;28;20202;-67
2021/12/01 08:49:39;;;;;;;0.80;0.80;;;-10.70;99.90;;;;;;5032329;28;20217;-69
2021/12/01 08:52:05;;;;;;;1.00;1.00;;;-10.70;99.90;;;;;;5033788;28;20193;-67
2021/12/01 08:54:31;;;;;;;1.00;1.00;;;-10.70;99.90;;;;;;5032542;28;20210;-68
2021/12/01 08:56:57;;;;;;;0.90;0.90;;;-10.60;99.90;;;;;;5015235;28;20575;-67
2021/12/01 08:59:23;;;;;;;2.87;2.13;;;-10.60;99.90;;;;;;5033433;28;20210;-67
2021/12/01 09:01:49;;;;;;;1.00;1.00;;;-10.60;99.90;;;;;;5033491;28;20792;-67
2021/12/01 09:04:15;;;;;;;0.90;0.90;;;-10.60;99.90;;;;;;5032082;28;20574;-67
2021/12/01 09:06:40;;;;;;;0.97;0.97;;;-10.70;99.90;;;;;;5014197;28;20214;-67
2021/12/01 09:09:06;;;;;;;1.00;1.00;;;-10.70;99.90;;;;;;5031968;28;20229;-67
2021/12/01 09:11:32;;;;;;;0.90;0.90;;;-10.60;99.90;;;;;;5031680;28;20230;-67
2021/12/01 09:13:57;;;;;;;1.00;1.00;;;-10.60;99.90;;;;;;5031980;28;20206;-67
2021/12/01 09:16:23;;;;;;;5.60;3.03;;;-10.60;99.90;;;;;;5031787;28;20642;-67
2021/12/01 09:18:49;;;;;;;0.90;0.90;;;-10.50;99.90;;;;;;5031499;28;20639;-67
2021/12/01 09:21:15;;;;;;;1.20;1.20;;;-10.50;99.90;;;;;;5033021;28;20665;-67
2021/12/01 09:23:40;;;;;;;0.90;0.90;;;-10.40;99.90;;;;;;5013851;28;20662;-66
2021/12/01 09:26:07;;;;;;;1.10;1.10;;;-10.40;99.90;;;;;;5013755;28;20296;-66
2021/12/01 09:28:33;;;;;;;11.83;6.57;;;-10.30;99.90;;;;;;5013541;28;20276;-66
2021/12/01 09:30:59;;;;;;;0.90;0.90;;;-10.30;99.90;;;;;;5031587;28;20661;-65
2021/12/01 09:33:27;;;;;;;0.90;0.90;;;-10.30;99.90;;;;;;5031132;28;20202;-65
2021/12/01 09:35:53;;;;;;;1.00;1.00;;;-10.30;99.90;;;;;;5013730;28;20238;-65
2021/12/01 09:38:19;;;;;;;0.90;0.90;;;-10.30;99.90;;;;;;5031485;28;20266;-65
2021/12/01 09:40:49;;;;;;;1.37;1.33;;;-10.30;99.90;;;;;;5014981;28;20213;-66
2021/12/01 09:43:18;;;;;;;0.90;0.90;;;-10.30;99.90;;;;;;5013817;28;20696;-66
2021/12/01 09:45:44;;;;;;;0.90;0.90;;;-10.30;99.90;;;;;;5014431;28;20213;-66
2021/12/01 09:48:10;;;;;;;1.10;1.10;;;-10.30;99.90;;;;;;5032710;28;20285;-66
2021/12/01 09:50:35;;;;;;;1.00;1.00;;;-10.20;99.90;;;;;;5031512;28;20352;-66
2021/12/01 09:53:01;;;;;;;0.90;0.90;;;-10.20;99.90;;;;;;5014010;28;20202;-66
2021/12/01 09:55:27;;;;;;;2.60;2.17;;;-10.20;99.90;;;;;;5032444;28;20209;-66
2021/12/01 09:57:59;;;;;;;1.00;1.00;;;-10.20;99.90;;;;;;5031324;28;20212;-66
2021/12/01 10:00:26;;;;;;;1.17;1.17;;;-10.20;99.90;;;;;;5030937;28;20217;-65
2021/12/01 10:02:52;;;;;;;1.00;1.00;;;-10.30;99.90;;;;;;5013331;28;20206;-66
2021/12/01 10:06:04;;;;;;;0.90;0.90;;;-10.30;99.90;;;;;;5031339;28;20217;-66
2021/12/01 10:09:04;;;;;;;1.03;1.03;;;-10.20;99.90;;;;;;5031019;28;20206;-66
2021/12/01 10:11:36;;;;;;;1.00;1.00;;;-10.20;99.90;;;;;;4995799;28;20234;-66
2021/12/01 10:14:19;;;;;;;0.90;0.90;;;-10.20;99.90;;;;;;5011286;28;20215;-66
2021/12/01 10:16:50;;;;;;;0.97;0.97;;;-10.10;99.90;;;;;;5012768;28;20214;-66
2021/12/01 10:19:16;;;;;;;1.00;1.00;;;-10.10;99.90;;;;;;5011347;28;20207;-66
2021/12/01 10:21:45;;;;;;;0.90;0.90;;;-10.00;99.90;;;;;;5011269;28;20218;-65
2021/12/01 10:24:16;;;;;;;0.90;0.90;;;-10.00;99.90;;;;;;5011336;28;20213;-66
2021/12/01 10:26:43;;;;;;;1.00;1.00;;;-9.90;99.90;;;;;;5009840;28;20264;-66
2021/12/01 10:29:15;;;;;;;0.97;0.97;;;-9.80;99.90;;;;;;5011119;28;20674;-65
2021/12/01 10:31:51;;;;;;;1.43;1.33;;;-9.70;99.90;;;;;;5014256;28;20197;-66
2021/12/01 10:34:31;;;;;;;1.00;1.00;;;-9.70;99.90;;;;;;5015219;28;20210;-66
2021/12/01 10:37:29;;;;;;;0.90;0.90;;;-9.60;99.90;;;;;;5016642;28;20202;-66
2021/12/01 10:40:11;;;;;;;0.90;0.90;;;-9.60;99.90;;;;;;5015083;28;20572;-66
2021/12/01 10:43:03;;;;;;;0.90;0.90;;;-9.50;99.90;;;;;;5013894;28;20206;-67
2021/12/01 10:45:40;;;;;;;1.00;1.00;;;-9.50;99.90;;;;;;5015294;28;20677;-67
2021/12/01 10:48:09;;;;;;;1.00;1.00;;;-9.40;99.90;;;;;;5016486;28;20217;-67
2021/12/01 10:50:39;;;;;;;1.00;1.00;;;-9.30;99.90;;;;;;5016397;28;20199;-67
2021/12/01 10:53:11;;;;;;;0.90;0.90;;;-9.20;99.90;;;;;;5015242;28;20666;-68
2021/12/01 10:55:46;;;;;;;0.90;0.90;;;-9.20;99.90;;;;;;5014852;28;20206;-67
2021/12/01 10:58:12;;;;;;;1.00;1.00;;;-9.10;99.90;;;;;;5015167;28;20691;-67
2021/12/01 11:00:42;;;;;;;1.00;1.00;;;-9.10;99.90;;;;;;5014892;28;20671;-67
2021/12/01 11:03:14;;;;;;;1.40;1.30;;;-9.20;99.90;;;;;;5014870;28;20302;-66
2021/12/01 11:05:40;;;;;;;1.00;1.00;;;-9.10;99.90;;;;;;5015906;28;20672;-68
2021/12/01 11:08:19;;;;;;;1.07;1.07;;;-9.00;99.90;;;;;;5014632;28;20227;-66
2021/12/01 11:10:51;;;;;;;1.00;1.00;;;-9.00;99.90;;;;;;5026071;28;20233;-66
2021/12/01 11:13:18;;;;;;;1.00;1.00;;;-9.00;99.90;;;;;;5034468;28;20312;-66
2021/12/01 11:15:50;;;;;;;1.00;1.00;;;-9.00;99.90;;;;;;5035746;28;20202;-66
2021/12/01 11:18:28;;;;;;;0.90;0.90;;;-9.00;99.90;;;;;;5034366;28;20661;-67
2021/12/01 11:20:56;;;;;;;1.00;1.00;;;-9.10;99.90;;;;;;5034531;28;20230;-67
2021/12/01 11:23:33;;;;;;;2.70;2.50;;;-9.00;99.90;;;;;;5034151;28;20198;-67
2021/12/01 11:26:11;;;;;;;1.53;1.43;;;-9.00;99.90;;;;;;5035659;28;20205;-67
2021/12/01 11:28:39;;;;;;;2.23;2.13;;;-9.00;99.90;;;;;;5034191;28;20751;-66
2021/12/01 11:31:26;;;;;;;2.13;2.03;;;-8.90;99.90;;;;;;5034222;28;20213;-68
2021/12/01 11:33:55;;;;;;;1.00;1.00;;;-8.80;99.90;;;;;;5034038;28;20194;-67
2021/12/01 11:36:30;;;;;;;1.03;1.03;;;-8.80;99.90;;;;;;5033997;28;20201;-67
2021/12/01 11:38:59;;;;;;;1.20;1.20;;;-8.70;99.90;;;;;;5033961;28;20704;-67
2021/12/01 11:41:27;;;;;;;0.93;0.93;;;-8.70;99.90;;;;;;5033593;28;20210;-67
2021/12/01 11:43:55;;;;;;;1.00;1.00;;;-8.60;99.90;;;;;;5017353;28;20204;-67
2021/12/01 11:46:20;;;;;;;1.10;1.10;;;-8.60;99.90;;;;;;5033676;28;20700;-67
2021/12/01 11:48:53;;;;;;;3.23;2.97;;;-8.60;99.90;;;;;;5033696;28;20209;-66
2021/12/01 11:51:27;;;;;;;0.90;0.90;;;-8.60;99.90;;;;;;5033843;28;20649;-66
2021/12/01 11:54:03;;;;;;;2.50;2.30;;;-8.60;99.90;;;;;;5033663;28;20186;-67
2021/12/01 11:56:33;;;;;;;0.90;0.90;;;-8.50;99.90;;;;;;5033722;28;20754;-66
2021/12/01 11:59:18;;;;;;;1.00;1.00;;;-8.50;99.90;;;;;;5035045;28;20657;-66
2021/12/01 12:01:51;;;;;;;0.90;0.90;;;-8.50;99.90;;;;;;5015782;28;20218;-66
2021/12/01 12:04:19;;;;;;;0.90;0.90;;;-8.40;99.90;;;;;;5033481;28;20573;-67
2021/12/01 12:06:49;;;;;;;1.67;1.20;;;-8.40;99.90;;;;;;5033506;28;20233;-67
2021/12/01 12:09:18;;;;;;;1.73;1.53;;;-8.40;99.90;;;;;;5034613;28;20226;-66
2021/12/01 12:11:49;;;;;;;1.00;1.00;;;-8.40;99.90;;;;;;5032956;28;20705;-66
2021/12/01 12:14:22;;;;;;;1.00;1.00;;;-8.40;99.90;;;;;;5016630;28;20198;-67
2021/12/01 12:17:19;;;;;;;2.47;2.07;;;-8.50;99.90;;;;;;5015431;28;20213;-67
2021/12/01 12:19:54;;;;;;;1.83;1.70;;;-8.50;99.90;;;;;;5033193;28;20201;-67
2021/12/01 12:22:40;;;;;;;1.00;1.00;;;-8.50;99.90;;;;;;5032892;28;20209;-68
2021/12/01 12:25:12;;;;;;;1.03;1.03;;;-8.50;99.90;;;;;;5032994;28;20209;-67
2021/12/01 12:27:39;;;;;;;0.90;0.90;;;-8.50;99.90;;;;;;5032813;28;20271;-67
2021/12/01 12:30:15;;;;;;;0.83;0.83;;;-8.50;99.90;;;;;;5032834;28;20300;-67
2021/12/01 12:32:44;;;;;;;0.90;0.90;;;-8.50;99.90;;;;;;5032747;28;20731;-67
2021/12/01 12:35:16;;;;;;;0.90;0.90;;;-8.50;99.90;;;;;;5032743;28;20226;-67
2021/12/01 12:37:43;;;;;;;0.90;0.90;;;-8.40;99.90;;;;;;5032849;28;20688;-67
2021/12/01 12:40:32;;;;;;;1.10;1.10;;;-8.40;99.90;;;;;;5014774;28;20210;-67
2021/12/01 12:43:13;;;;;;;1.10;1.10;;;-8.30;99.90;;;;;;5002115;28;20210;-67
2021/12/01 12:45:58;;;;;;;0.90;0.90;;;-8.30;99.90;;;;;;5031631;28;20661;-67
2021/12/01 12:48:29;;;;;;;0.90;0.90;;;-8.30;99.90;;;;;;5032779;28;20263;-68
2021/12/01 12:51:20;;;;;;;0.90;0.90;;;-8.40;99.90;;;;;;5031948;28;20213;-67